sensor_id;sensor_type;location;lat;lon;timestamp;P1;durP1;ratioP1;P2;durP2;ratioP2
30888;SDS011;51092;50.874;7.024;2023-07-02T00:00:04;7.65;;;4.50;;
30888;SDS011;51092;50.874;7.024;2023-07-02T00:01:07;9.90;;;4.40;;
30888;SDS011;51092;50.874;7.024;2023-07-02T00:02:09;10.00;;;3.97;;
30888;SDS011;51092;50.874;7.024;2023-07-02T00:03:11;8.98;;;4.82;;
30888;SDS011;51092;50.874;7.024;2023-07-02T00:04:14;10.38;;;4.15;;
30888;SDS011;51092;50.874;7.024;2023-07-02T00:05:17;9.02;;;4.55;;
30888;SDS011;51092;50.874;7.024;2023-07-02T00:06:19;7.28;;;3.80;;
30888;SDS011;51092;50.874;7.024;2023-07-02T00:07:21;11.77;;;4.10;;
30888;SDS011;51092;50.874;7.024;2023-07-02T00:08:23;7.80;;;4.68;;
30888;SDS011;51092;50.874;7.024;2023-07-02T00:09:25;10.52;;;4.68;;
30888;SDS011;51092;50.874;7.024;2023-07-02T00:10:27;9.95;;;4.32;;
30888;SDS011;51092;50.874;7.024;2023-07-02T00:11:28;7.63;;;4.38;;
30888;SDS011;51092;50.874;7.024;2023-07-02T00:12:31;7.53;;;4.28;;
30888;SDS011;51092;50.874;7.024;2023-07-02T00:13:32;9.45;;;4.53;;
30888;SDS011;51092;50.874;7.024;2023-07-02T00:14:35;8.05;;;4.00;;
30888;SDS011;51092;50.874;7.024;2023-07-02T00:15:36;8.43;;;3.97;;
30888;SDS011;51092;50.874;7.024;2023-07-02T00:16:39;9.15;;;4.22;;
30888;SDS011;51092;50.874;7.024;2023-07-02T00:17:43;6.38;;;3.97;;
30888;SDS011;51092;50.874;7.024;2023-07-02T00:18:46;7.88;;;3.92;;
30888;SDS011;51092;50.874;7.024;2023-07-02T00:19:54;7.72;;;3.47;;
30888;SDS011;51092;50.874;7.024;2023-07-02T00:20:57;10.75;;;4.40;;
30888;SDS011;51092;50.874;7.024;2023-07-02T00:21:58;6.72;;;4.18;;
30888;SDS011;51092;50.874;7.024;2023-07-02T00:23:01;7.80;;;3.53;;
30888;SDS011;51092;50.874;7.024;2023-07-02T00:24:03;7.72;;;3.70;;
30888;SDS011;51092;50.874;7.024;2023-07-02T00:25:06;9.05;;;4.13;;
30888;SDS011;51092;50.874;7.024;2023-07-02T00:26:07;8.57;;;4.22;;
30888;SDS011;51092;50.874;7.024;2023-07-02T00:27:10;6.85;;;3.63;;
30888;SDS011;51092;50.874;7.024;2023-07-02T00:28:11;6.55;;;4.18;;
30888;SDS011;51092;50.874;7.024;2023-07-02T00:29:14;10.25;;;4.03;;
30888;SDS011;51092;50.874;7.024;2023-07-02T00:30:15;8.70;;;3.78;;
30888;SDS011;51092;50.874;7.024;2023-07-02T00:31:18;5.57;;;3.70;;
30888;SDS011;51092;50.874;7.024;2023-07-02T00:32:19;8.32;;;3.97;;
30888;SDS011;51092;50.874;7.024;2023-07-02T00:33:22;9.85;;;3.72;;
30888;SDS011;51092;50.874;7.024;2023-07-02T00:34:24;7.65;;;4.07;;
30888;SDS011;51092;50.874;7.024;2023-07-02T00:35:28;6.13;;;3.47;;
30888;SDS011;51092;50.874;7.024;2023-07-02T00:36:30;14.80;;;4.38;;
30888;SDS011;51092;50.874;7.024;2023-07-02T00:37:33;6.72;;;3.22;;
30888;SDS011;51092;50.874;7.024;2023-07-02T00:38:34;6.55;;;3.72;;
30888;SDS011;51092;50.874;7.024;2023-07-02T00:39:37;11.13;;;4.18;;
30888;SDS011;51092;50.874;7.024;2023-07-02T00:40:38;6.40;;;3.78;;
30888;SDS011;51092;50.874;7.024;2023-07-02T00:41:40;7.50;;;3.92;;
30888;SDS011;51092;50.874;7.024;2023-07-02T00:42:43;5.60;;;3.83;;
30888;SDS011;51092;50.874;7.024;2023-07-02T00:43:45;7.70;;;4.15;;
30888;SDS011;51092;50.874;7.024;2023-07-02T00:44:47;7.50;;;4.35;;
30888;SDS011;51092;50.874;7.024;2023-07-02T00:45:49;8.98;;;4.63;;
30888;SDS011;51092;50.874;7.024;2023-07-02T00:46:51;8.73;;;4.30;;
30888;SDS011;51092;50.874;7.024;2023-07-02T00:47:54;8.07;;;4.40;;
30888;SDS011;51092;50.874;7.024;2023-07-02T00:48:56;9.13;;;4.38;;
30888;SDS011;51092;50.874;7.024;2023-07-02T00:50:00;12.15;;;4.60;;
30888;SDS011;51092;50.874;7.024;2023-07-02T00:51:04;8.20;;;4.43;;
30888;SDS011;51092;50.874;7.024;2023-07-02T00:52:07;7.95;;;4.13;;
30888;SDS011;51092;50.874;7.024;2023-07-02T00:53:09;8.85;;;4.03;;
30888;SDS011;51092;50.874;7.024;2023-07-02T00:54:11;8.95;;;4.90;;
30888;SDS011;51092;50.874;7.024;2023-07-02T00:55:13;9.20;;;4.38;;
30888;SDS011;51092;50.874;7.024;2023-07-02T00:56:16;8.60;;;5.07;;
30888;SDS011;51092;50.874;7.024;2023-07-02T00:57:18;5.38;;;4.20;;
30888;SDS011;51092;50.874;7.024;2023-07-02T00:58:21;9.07;;;4.63;;
30888;SDS011;51092;50.874;7.024;2023-07-02T00:59:23;8.15;;;4.45;;
30888;SDS011;51092;50.874;7.024;2023-07-02T01:00:25;9.95;;;4.93;;
30888;SDS011;51092;50.874;7.024;2023-07-02T01:01:27;8.88;;;5.03;;
30888;SDS011;51092;50.874;7.024;2023-07-02T01:02:30;9.95;;;5.15;;
30888;SDS011;51092;50.874;7.024;2023-07-02T01:03:32;9.75;;;4.88;;
30888;SDS011;51092;50.874;7.024;2023-07-02T01:04:38;10.63;;;5.30;;
30888;SDS011;51092;50.874;7.024;2023-07-02T01:05:40;10.77;;;4.72;;
30888;SDS011;51092;50.874;7.024;2023-07-02T01:06:44;13.10;;;5.20;;
30888;SDS011;51092;50.874;7.024;2023-07-02T01:07:45;7.85;;;4.88;;
30888;SDS011;51092;50.874;7.024;2023-07-02T01:08:48;10.38;;;4.75;;
30888;SDS011;51092;50.874;7.024;2023-07-02T01:09:49;9.00;;;5.38;;
30888;SDS011;51092;50.874;7.024;2023-07-02T01:10:52;12.25;;;6.18;;
30888;SDS011;51092;50.874;7.024;2023-07-02T01:11:54;7.47;;;5.22;;
30888;SDS011;51092;50.874;7.024;2023-07-02T01:12:59;9.55;;;5.72;;
30888;SDS011;51092;50.874;7.024;2023-07-02T01:14:05;8.50;;;5.53;;
30888;SDS011;51092;50.874;7.024;2023-07-02T01:15:11;11.07;;;5.85;;
30888;SDS011;51092;50.874;7.024;2023-07-02T01:16:13;10.50;;;5.68;;
30888;SDS011;51092;50.874;7.024;2023-07-02T01:17:15;11.13;;;6.43;;
30888;SDS011;51092;50.874;7.024;2023-07-02T01:18:19;9.57;;;5.93;;
30888;SDS011;51092;50.874;7.024;2023-07-02T01:19:30;17.35;;;6.47;;
30888;SDS011;51092;50.874;7.024;2023-07-02T01:20:41;14.10;;;6.18;;
30888;SDS011;51092;50.874;7.024;2023-07-02T01:21:44;13.45;;;5.75;;
30888;SDS011;51092;50.874;7.024;2023-07-02T01:22:47;9.55;;;6.78;;
30888;SDS011;51092;50.874;7.024;2023-07-02T01:23:52;13.23;;;7.40;;
30888;SDS011;51092;50.874;7.024;2023-07-02T01:24:54;16.95;;;6.75;;
30888;SDS011;51092;50.874;7.024;2023-07-02T01:25:57;17.77;;;7.03;;
30888;SDS011;51092;50.874;7.024;2023-07-02T01:27:00;12.25;;;7.22;;
30888;SDS011;51092;50.874;7.024;2023-07-02T01:28:02;12.18;;;8.10;;
30888;SDS011;51092;50.874;7.024;2023-07-02T01:29:13;13.55;;;7.78;;
30888;SDS011;51092;50.874;7.024;2023-07-02T01:30:16;18.05;;;7.80;;
30888;SDS011;51092;50.874;7.024;2023-07-02T01:31:17;19.08;;;7.78;;
30888;SDS011;51092;50.874;7.024;2023-07-02T01:32:20;13.45;;;7.35;;
30888;SDS011;51092;50.874;7.024;2023-07-02T01:33:22;15.50;;;7.95;;
30888;SDS011;51092;50.874;7.024;2023-07-02T01:34:24;16.33;;;7.90;;
30888;SDS011;51092;50.874;7.024;2023-07-02T01:35:27;15.70;;;8.07;;
30888;SDS011;51092;50.874;7.024;2023-07-02T01:36:30;17.45;;;7.97;;
30888;SDS011;51092;50.874;7.024;2023-07-02T01:37:31;16.15;;;7.60;;
30888;SDS011;51092;50.874;7.024;2023-07-02T01:38:38;15.95;;;8.73;;
30888;SDS011;51092;50.874;7.024;2023-07-02T01:39:39;19.38;;;8.75;;
30888;SDS011;51092;50.874;7.024;2023-07-02T01:40:42;13.32;;;8.23;;
30888;SDS011;51092;50.874;7.024;2023-07-02T01:41:44;18.73;;;8.90;;
30888;SDS011;51092;50.874;7.024;2023-07-02T01:42:51;18.45;;;8.80;;
30888;SDS011;51092;50.874;7.024;2023-07-02T01:43:52;18.90;;;8.75;;
30888;SDS011;51092;50.874;7.024;2023-07-02T01:44:54;15.00;;;9.10;;
30888;SDS011;51092;50.874;7.024;2023-07-02T01:45:56;16.23;;;8.85;;
30888;SDS011;51092;50.874;7.024;2023-07-02T01:47:00;16.42;;;8.25;;
30888;SDS011;51092;50.874;7.024;2023-07-02T01:48:01;18.70;;;8.75;;
30888;SDS011;51092;50.874;7.024;2023-07-02T01:49:04;15.85;;;10.32;;
30888;SDS011;51092;50.874;7.024;2023-07-02T01:50:06;14.52;;;8.93;;
30888;SDS011;51092;50.874;7.024;2023-07-02T01:51:10;15.52;;;9.48;;
30888;SDS011;51092;50.874;7.024;2023-07-02T01:52:12;19.08;;;9.95;;
30888;SDS011;51092;50.874;7.024;2023-07-02T01:53:14;18.13;;;10.40;;
30888;SDS011;51092;50.874;7.024;2023-07-02T01:54:16;19.65;;;10.43;;
30888;SDS011;51092;50.874;7.024;2023-07-02T01:55:18;27.52;;;12.05;;
30888;SDS011;51092;50.874;7.024;2023-07-02T01:56:20;26.10;;;11.18;;
30888;SDS011;51092;50.874;7.024;2023-07-02T01:57:22;26.35;;;11.23;;
30888;SDS011;51092;50.874;7.024;2023-07-02T01:58:24;21.80;;;12.02;;
30888;SDS011;51092;50.874;7.024;2023-07-02T01:59:26;22.55;;;12.52;;
30888;SDS011;51092;50.874;7.024;2023-07-02T02:00:27;19.80;;;11.05;;
30888;SDS011;51092;50.874;7.024;2023-07-02T02:01:30;22.17;;;11.48;;
30888;SDS011;51092;50.874;7.024;2023-07-02T02:02:33;24.30;;;12.13;;
30888;SDS011;51092;50.874;7.024;2023-07-02T02:03:35;22.08;;;12.20;;
30888;SDS011;51092;50.874;7.024;2023-07-02T02:04:37;20.33;;;10.98;;
30888;SDS011;51092;50.874;7.024;2023-07-02T02:05:39;23.88;;;12.00;;
30888;SDS011;51092;50.874;7.024;2023-07-02T02:06:42;21.35;;;12.10;;
30888;SDS011;51092;50.874;7.024;2023-07-02T02:07:45;20.80;;;13.02;;
30888;SDS011;51092;50.874;7.024;2023-07-02T02:08:46;21.95;;;12.75;;
30888;SDS011;51092;50.874;7.024;2023-07-02T02:09:48;26.15;;;11.95;;
30888;SDS011;51092;50.874;7.024;2023-07-02T02:10:50;19.23;;;11.70;;
30888;SDS011;51092;50.874;7.024;2023-07-02T02:11:52;20.13;;;11.45;;
30888;SDS011;51092;50.874;7.024;2023-07-02T02:12:54;23.83;;;11.52;;
30888;SDS011;51092;50.874;7.024;2023-07-02T02:13:56;21.00;;;11.52;;
30888;SDS011;51092;50.874;7.024;2023-07-02T02:14:58;26.67;;;11.38;;
30888;SDS011;51092;50.874;7.024;2023-07-02T02:16:00;24.08;;;12.43;;
30888;SDS011;51092;50.874;7.024;2023-07-02T02:17:02;26.60;;;13.02;;
30888;SDS011;51092;50.874;7.024;2023-07-02T02:18:05;23.70;;;12.48;;
30888;SDS011;51092;50.874;7.024;2023-07-02T02:19:06;25.60;;;13.25;;
30888;SDS011;51092;50.874;7.024;2023-07-02T02:20:09;26.05;;;11.80;;
30888;SDS011;51092;50.874;7.024;2023-07-02T02:21:11;24.42;;;13.00;;
30888;SDS011;51092;50.874;7.024;2023-07-02T02:22:15;27.13;;;12.93;;
30888;SDS011;51092;50.874;7.024;2023-07-02T02:23:16;26.30;;;13.43;;
30888;SDS011;51092;50.874;7.024;2023-07-02T02:24:19;22.30;;;12.48;;
30888;SDS011;51092;50.874;7.024;2023-07-02T02:25:21;23.30;;;12.52;;
30888;SDS011;51092;50.874;7.024;2023-07-02T02:26:23;23.08;;;12.77;;
30888;SDS011;51092;50.874;7.024;2023-07-02T02:27:26;23.08;;;12.88;;
30888;SDS011;51092;50.874;7.024;2023-07-02T02:28:28;28.13;;;13.52;;
30888;SDS011;51092;50.874;7.024;2023-07-02T02:29:30;23.60;;;12.77;;
30888;SDS011;51092;50.874;7.024;2023-07-02T02:30:32;24.95;;;12.82;;
30888;SDS011;51092;50.874;7.024;2023-07-02T02:31:34;27.83;;;13.93;;
30888;SDS011;51092;50.874;7.024;2023-07-02T02:32:36;23.52;;;12.80;;
30888;SDS011;51092;50.874;7.024;2023-07-02T02:33:38;21.80;;;12.20;;
30888;SDS011;51092;50.874;7.024;2023-07-02T02:34:40;23.98;;;13.90;;
30888;SDS011;51092;50.874;7.024;2023-07-02T02:35:42;25.35;;;13.68;;
30888;SDS011;51092;50.874;7.024;2023-07-02T02:36:44;23.73;;;12.95;;
30888;SDS011;51092;50.874;7.024;2023-07-02T02:37:48;24.92;;;13.20;;
30888;SDS011;51092;50.874;7.024;2023-07-02T02:38:51;25.98;;;13.93;;
30888;SDS011;51092;50.874;7.024;2023-07-02T02:39:52;22.88;;;13.13;;
30888;SDS011;51092;50.874;7.024;2023-07-02T02:40:55;23.85;;;12.38;;
30888;SDS011;51092;50.874;7.024;2023-07-02T02:41:56;21.40;;;12.75;;
30888;SDS011;51092;50.874;7.024;2023-07-02T02:42:59;22.70;;;12.93;;
30888;SDS011;51092;50.874;7.024;2023-07-02T02:44:00;27.50;;;13.48;;
30888;SDS011;51092;50.874;7.024;2023-07-02T02:45:03;21.15;;;12.43;;
30888;SDS011;51092;50.874;7.024;2023-07-02T02:46:05;22.10;;;13.00;;
30888;SDS011;51092;50.874;7.024;2023-07-02T02:47:07;22.27;;;13.40;;
30888;SDS011;51092;50.874;7.024;2023-07-02T02:48:09;24.45;;;13.80;;
30888;SDS011;51092;50.874;7.024;2023-07-02T02:49:11;25.02;;;13.18;;
30888;SDS011;51092;50.874;7.024;2023-07-02T02:50:13;25.60;;;13.02;;
30888;SDS011;51092;50.874;7.024;2023-07-02T02:51:15;25.85;;;13.38;;
30888;SDS011;51092;50.874;7.024;2023-07-02T02:52:16;21.52;;;12.48;;
30888;SDS011;51092;50.874;7.024;2023-07-02T02:53:19;25.75;;;13.27;;
30888;SDS011;51092;50.874;7.024;2023-07-02T02:54:20;26.27;;;13.45;;
30888;SDS011;51092;50.874;7.024;2023-07-02T02:55:23;24.52;;;13.77;;
30888;SDS011;51092;50.874;7.024;2023-07-02T02:56:24;24.15;;;14.57;;
30888;SDS011;51092;50.874;7.024;2023-07-02T02:57:27;31.80;;;14.23;;
30888;SDS011;51092;50.874;7.024;2023-07-02T02:58:28;28.73;;;14.75;;
30888;SDS011;51092;50.874;7.024;2023-07-02T02:59:31;25.80;;;14.35;;
30888;SDS011;51092;50.874;7.024;2023-07-02T03:00:32;32.72;;;13.25;;
30888;SDS011;51092;50.874;7.024;2023-07-02T03:01:35;25.15;;;13.60;;
30888;SDS011;51092;50.874;7.024;2023-07-02T03:02:37;24.42;;;13.68;;
30888;SDS011;51092;50.874;7.024;2023-07-02T03:03:40;23.73;;;13.90;;
30888;SDS011;51092;50.874;7.024;2023-07-02T03:04:45;25.52;;;13.70;;
30888;SDS011;51092;50.874;7.024;2023-07-02T03:05:50;26.33;;;13.88;;
30888;SDS011;51092;50.874;7.024;2023-07-02T03:06:51;27.60;;;13.60;;
30888;SDS011;51092;50.874;7.024;2023-07-02T03:07:54;25.35;;;13.77;;
30888;SDS011;51092;50.874;7.024;2023-07-02T03:08:57;28.40;;;13.63;;
30888;SDS011;51092;50.874;7.024;2023-07-02T03:09:59;27.25;;;13.20;;
30888;SDS011;51092;50.874;7.024;2023-07-02T03:11:01;26.00;;;14.52;;
30888;SDS011;51092;50.874;7.024;2023-07-02T03:12:03;25.20;;;15.07;;
30888;SDS011;51092;50.874;7.024;2023-07-02T03:13:05;28.60;;;14.45;;
30888;SDS011;51092;50.874;7.024;2023-07-02T03:14:08;27.20;;;14.23;;
30888;SDS011;51092;50.874;7.024;2023-07-02T03:15:09;23.30;;;15.57;;
30888;SDS011;51092;50.874;7.024;2023-07-02T03:16:12;27.05;;;14.57;;
30888;SDS011;51092;50.874;7.024;2023-07-02T03:17:13;27.95;;;14.30;;
30888;SDS011;51092;50.874;7.024;2023-07-02T03:18:16;24.85;;;12.80;;
30888;SDS011;51092;50.874;7.024;2023-07-02T03:19:17;26.20;;;14.40;;
30888;SDS011;51092;50.874;7.024;2023-07-02T03:20:20;29.58;;;15.57;;
30888;SDS011;51092;50.874;7.024;2023-07-02T03:21:22;28.83;;;15.35;;
30888;SDS011;51092;50.874;7.024;2023-07-02T03:22:24;25.65;;;13.68;;
30888;SDS011;51092;50.874;7.024;2023-07-02T03:23:25;29.90;;;15.45;;
30888;SDS011;51092;50.874;7.024;2023-07-02T03:24:29;23.75;;;14.57;;
30888;SDS011;51092;50.874;7.024;2023-07-02T03:25:31;26.98;;;13.68;;
30888;SDS011;51092;50.874;7.024;2023-07-02T03:26:33;24.20;;;15.32;;
30888;SDS011;51092;50.874;7.024;2023-07-02T03:27:35;26.77;;;13.68;;
30888;SDS011;51092;50.874;7.024;2023-07-02T03:28:37;23.65;;;15.20;;
30888;SDS011;51092;50.874;7.024;2023-07-02T03:29:39;28.45;;;14.65;;
30888;SDS011;51092;50.874;7.024;2023-07-02T03:30:41;20.20;;;13.65;;
30888;SDS011;51092;50.874;7.024;2023-07-02T03:31:42;29.25;;;15.18;;
30888;SDS011;51092;50.874;7.024;2023-07-02T03:32:45;26.90;;;15.32;;
30888;SDS011;51092;50.874;7.024;2023-07-02T03:33:47;22.88;;;13.45;;
30888;SDS011;51092;50.874;7.024;2023-07-02T03:34:49;29.40;;;14.77;;
30888;SDS011;51092;50.874;7.024;2023-07-02T03:35:50;29.95;;;16.60;;
30888;SDS011;51092;50.874;7.024;2023-07-02T03:36:53;27.35;;;14.60;;
30888;SDS011;51092;50.874;7.024;2023-07-02T03:37:55;22.92;;;14.20;;
30888;SDS011;51092;50.874;7.024;2023-07-02T03:38:58;26.67;;;15.63;;
30888;SDS011;51092;50.874;7.024;2023-07-02T03:40:02;31.45;;;15.70;;
30888;SDS011;51092;50.874;7.024;2023-07-02T03:41:04;26.95;;;15.23;;
30888;SDS011;51092;50.874;7.024;2023-07-02T03:42:07;30.23;;;15.85;;
30888;SDS011;51092;50.874;7.024;2023-07-02T03:43:08;28.88;;;15.13;;
30888;SDS011;51092;50.874;7.024;2023-07-02T03:44:11;26.48;;;15.50;;
30888;SDS011;51092;50.874;7.024;2023-07-02T03:45:12;30.70;;;15.85;;
30888;SDS011;51092;50.874;7.024;2023-07-02T03:46:15;30.98;;;15.75;;
30888;SDS011;51092;50.874;7.024;2023-07-02T03:47:16;29.75;;;15.73;;
30888;SDS011;51092;50.874;7.024;2023-07-02T03:48:20;29.35;;;15.02;;
30888;SDS011;51092;50.874;7.024;2023-07-02T03:49:21;28.42;;;15.88;;
30888;SDS011;51092;50.874;7.024;2023-07-02T03:50:24;33.60;;;16.80;;
30888;SDS011;51092;50.874;7.024;2023-07-02T03:51:25;28.75;;;16.00;;
30888;SDS011;51092;50.874;7.024;2023-07-02T03:52:27;28.42;;;16.17;;
30888;SDS011;51092;50.874;7.024;2023-07-02T03:53:28;32.13;;;17.38;;
30888;SDS011;51092;50.874;7.024;2023-07-02T03:54:30;30.98;;;17.15;;
30888;SDS011;51092;50.874;7.024;2023-07-02T03:55:32;30.70;;;16.70;;
30888;SDS011;51092;50.874;7.024;2023-07-02T03:56:35;27.35;;;16.05;;
30888;SDS011;51092;50.874;7.024;2023-07-02T03:57:36;31.17;;;16.98;;
30888;SDS011;51092;50.874;7.024;2023-07-02T03:58:39;34.53;;;17.58;;
30888;SDS011;51092;50.874;7.024;2023-07-02T03:59:41;30.13;;;16.70;;
30888;SDS011;51092;50.874;7.024;2023-07-02T04:00:43;36.92;;;16.75;;
30888;SDS011;51092;50.874;7.024;2023-07-02T04:01:45;31.40;;;16.88;;
30888;SDS011;51092;50.874;7.024;2023-07-02T04:02:47;26.48;;;15.70;;
30888;SDS011;51092;50.874;7.024;2023-07-02T04:03:49;29.75;;;16.42;;
30888;SDS011;51092;50.874;7.024;2023-07-02T04:04:52;34.15;;;17.55;;
30888;SDS011;51092;50.874;7.024;2023-07-02T04:05:54;31.65;;;16.08;;
30888;SDS011;51092;50.874;7.024;2023-07-02T04:06:56;37.33;;;18.02;;
30888;SDS011;51092;50.874;7.024;2023-07-02T04:07:58;31.45;;;17.17;;
30888;SDS011;51092;50.874;7.024;2023-07-02T04:09:00;28.17;;;16.65;;
30888;SDS011;51092;50.874;7.024;2023-07-02T04:10:02;33.00;;;17.05;;
30888;SDS011;51092;50.874;7.024;2023-07-02T04:11:06;31.73;;;17.30;;
30888;SDS011;51092;50.874;7.024;2023-07-02T04:12:08;32.83;;;17.90;;
30888;SDS011;51092;50.874;7.024;2023-07-02T04:13:11;28.58;;;16.17;;
30888;SDS011;51092;50.874;7.024;2023-07-02T04:14:13;34.75;;;17.95;;
30888;SDS011;51092;50.874;7.024;2023-07-02T04:15:15;37.40;;;19.65;;
30888;SDS011;51092;50.874;7.024;2023-07-02T04:16:17;38.97;;;19.80;;
30888;SDS011;51092;50.874;7.024;2023-07-02T04:17:19;33.10;;;18.23;;
30888;SDS011;51092;50.874;7.024;2023-07-02T04:18:21;34.65;;;18.48;;
30888;SDS011;51092;50.874;7.024;2023-07-02T04:19:23;40.15;;;20.05;;
30888;SDS011;51092;50.874;7.024;2023-07-02T04:20:24;28.13;;;18.25;;
30888;SDS011;51092;50.874;7.024;2023-07-02T04:21:29;30.60;;;19.33;;
30888;SDS011;51092;50.874;7.024;2023-07-02T04:22:31;34.45;;;18.17;;
30888;SDS011;51092;50.874;7.024;2023-07-02T04:23:33;31.38;;;18.70;;
30888;SDS011;51092;50.874;7.024;2023-07-02T04:24:35;30.35;;;18.35;;
30888;SDS011;51092;50.874;7.024;2023-07-02T04:25:37;30.73;;;17.02;;
30888;SDS011;51092;50.874;7.024;2023-07-02T04:26:40;36.47;;;18.77;;
30888;SDS011;51092;50.874;7.024;2023-07-02T04:27:43;33.63;;;18.15;;
30888;SDS011;51092;50.874;7.024;2023-07-02T04:28:45;32.22;;;18.08;;
30888;SDS011;51092;50.874;7.024;2023-07-02T04:29:48;35.78;;;20.35;;
30888;SDS011;51092;50.874;7.024;2023-07-02T04:30:49;33.15;;;18.42;;
30888;SDS011;51092;50.874;7.024;2023-07-02T04:31:53;32.47;;;17.77;;
30888;SDS011;51092;50.874;7.024;2023-07-02T04:32:55;33.97;;;19.33;;
30888;SDS011;51092;50.874;7.024;2023-07-02T04:33:57;36.20;;;19.55;;
30888;SDS011;51092;50.874;7.024;2023-07-02T04:35:00;31.10;;;18.98;;
30888;SDS011;51092;50.874;7.024;2023-07-02T04:36:03;34.85;;;19.77;;
30888;SDS011;51092;50.874;7.024;2023-07-02T04:37:05;34.97;;;18.38;;
30888;SDS011;51092;50.874;7.024;2023-07-02T04:38:08;40.78;;;20.27;;
30888;SDS011;51092;50.874;7.024;2023-07-02T04:39:09;33.05;;;18.95;;
30888;SDS011;51092;50.874;7.024;2023-07-02T04:40:12;30.52;;;18.15;;
30888;SDS011;51092;50.874;7.024;2023-07-02T04:41:14;33.13;;;19.65;;
30888;SDS011;51092;50.874;7.024;2023-07-02T04:42:17;37.67;;;20.35;;
30888;SDS011;51092;50.874;7.024;2023-07-02T04:43:18;35.42;;;20.50;;
30888;SDS011;51092;50.874;7.024;2023-07-02T04:44:20;33.92;;;19.20;;
30888;SDS011;51092;50.874;7.024;2023-07-02T04:45:29;40.63;;;20.63;;
30888;SDS011;51092;50.874;7.024;2023-07-02T04:46:37;42.15;;;21.25;;
30888;SDS011;51092;50.874;7.024;2023-07-02T04:47:38;35.30;;;21.15;;
30888;SDS011;51092;50.874;7.024;2023-07-02T04:48:41;34.58;;;20.15;;
30888;SDS011;51092;50.874;7.024;2023-07-02T04:49:42;33.63;;;20.38;;
30888;SDS011;51092;50.874;7.024;2023-07-02T04:50:45;37.03;;;22.27;;
30888;SDS011;51092;50.874;7.024;2023-07-02T04:51:46;34.97;;;20.75;;
30888;SDS011;51092;50.874;7.024;2023-07-02T04:52:49;46.75;;;22.60;;
30888;SDS011;51092;50.874;7.024;2023-07-02T04:53:50;37.78;;;20.25;;
30888;SDS011;51092;50.874;7.024;2023-07-02T04:54:53;44.47;;;22.48;;
30888;SDS011;51092;50.874;7.024;2023-07-02T04:55:55;35.65;;;21.15;;
30888;SDS011;51092;50.874;7.024;2023-07-02T04:56:58;37.92;;;20.60;;
30888;SDS011;51092;50.874;7.024;2023-07-02T04:58:02;32.40;;;21.67;;
30888;SDS011;51092;50.874;7.024;2023-07-02T04:59:03;40.17;;;21.33;;
30888;SDS011;51092;50.874;7.024;2023-07-02T05:00:06;38.08;;;20.48;;
30888;SDS011;51092;50.874;7.024;2023-07-02T05:01:09;34.85;;;20.67;;
30888;SDS011;51092;50.874;7.024;2023-07-02T05:02:11;39.42;;;20.30;;
30888;SDS011;51092;50.874;7.024;2023-07-02T05:03:13;43.88;;;22.25;;
30888;SDS011;51092;50.874;7.024;2023-07-02T05:04:15;36.63;;;21.50;;
30888;SDS011;51092;50.874;7.024;2023-07-02T05:05:17;39.47;;;21.30;;
30888;SDS011;51092;50.874;7.024;2023-07-02T05:06:20;51.70;;;24.52;;
30888;SDS011;51092;50.874;7.024;2023-07-02T05:07:21;38.42;;;21.38;;
30888;SDS011;51092;50.874;7.024;2023-07-02T05:08:23;41.20;;;22.35;;
30888;SDS011;51092;50.874;7.024;2023-07-02T05:09:25;36.38;;;20.75;;
30888;SDS011;51092;50.874;7.024;2023-07-02T05:10:27;39.10;;;21.20;;
30888;SDS011;51092;50.874;7.024;2023-07-02T05:11:29;47.10;;;23.77;;
30888;SDS011;51092;50.874;7.024;2023-07-02T05:12:32;35.80;;;21.38;;
30888;SDS011;51092;50.874;7.024;2023-07-02T05:13:34;42.17;;;23.33;;
30888;SDS011;51092;50.874;7.024;2023-07-02T05:14:37;34.85;;;22.52;;
30888;SDS011;51092;50.874;7.024;2023-07-02T05:15:39;36.95;;;22.85;;
30888;SDS011;51092;50.874;7.024;2023-07-02T05:16:41;39.80;;;23.00;;
30888;SDS011;51092;50.874;7.024;2023-07-02T05:17:43;43.50;;;22.10;;
30888;SDS011;51092;50.874;7.024;2023-07-02T05:18:45;42.60;;;21.98;;
30888;SDS011;51092;50.874;7.024;2023-07-02T05:19:47;43.78;;;22.60;;
30888;SDS011;51092;50.874;7.024;2023-07-02T05:20:49;41.97;;;23.60;;
30888;SDS011;51092;50.874;7.024;2023-07-02T05:21:51;35.15;;;22.63;;
30888;SDS011;51092;50.874;7.024;2023-07-02T05:22:53;43.58;;;22.77;;
30888;SDS011;51092;50.874;7.024;2023-07-02T05:23:55;43.88;;;23.08;;
30888;SDS011;51092;50.874;7.024;2023-07-02T05:24:57;40.55;;;23.05;;
30888;SDS011;51092;50.874;7.024;2023-07-02T05:25:59;41.80;;;23.30;;
30888;SDS011;51092;50.874;7.024;2023-07-02T05:27:02;42.13;;;23.90;;
30888;SDS011;51092;50.874;7.024;2023-07-02T05:28:04;41.80;;;22.92;;
30888;SDS011;51092;50.874;7.024;2023-07-02T05:29:08;43.13;;;22.73;;
30888;SDS011;51092;50.874;7.024;2023-07-02T05:30:10;45.75;;;23.38;;
30888;SDS011;51092;50.874;7.024;2023-07-02T05:31:13;47.30;;;23.92;;
30888;SDS011;51092;50.874;7.024;2023-07-02T05:32:14;45.28;;;23.85;;
30888;SDS011;51092;50.874;7.024;2023-07-02T05:33:17;43.28;;;22.55;;
30888;SDS011;51092;50.874;7.024;2023-07-02T05:34:19;38.60;;;22.73;;
30888;SDS011;51092;50.874;7.024;2023-07-02T05:35:21;43.45;;;23.33;;
30888;SDS011;51092;50.874;7.024;2023-07-02T05:36:23;42.45;;;22.35;;
30888;SDS011;51092;50.874;7.024;2023-07-02T05:37:25;42.60;;;22.40;;
30888;SDS011;51092;50.874;7.024;2023-07-02T05:38:26;41.65;;;23.33;;
30888;SDS011;51092;50.874;7.024;2023-07-02T05:39:29;41.83;;;23.30;;
30888;SDS011;51092;50.874;7.024;2023-07-02T05:40:31;49.40;;;25.08;;
30888;SDS011;51092;50.874;7.024;2023-07-02T05:41:33;45.72;;;23.98;;
30888;SDS011;51092;50.874;7.024;2023-07-02T05:42:35;45.88;;;23.73;;
30888;SDS011;51092;50.874;7.024;2023-07-02T05:43:38;42.15;;;23.60;;
30888;SDS011;51092;50.874;7.024;2023-07-02T05:44:41;42.83;;;23.65;;
30888;SDS011;51092;50.874;7.024;2023-07-02T05:45:43;49.53;;;24.60;;
30888;SDS011;51092;50.874;7.024;2023-07-02T05:46:45;41.55;;;23.50;;
30888;SDS011;51092;50.874;7.024;2023-07-02T05:47:47;51.00;;;25.52;;
30888;SDS011;51092;50.874;7.024;2023-07-02T05:48:49;41.90;;;23.33;;
30888;SDS011;51092;50.874;7.024;2023-07-02T05:49:52;43.17;;;24.38;;
30888;SDS011;51092;50.874;7.024;2023-07-02T05:50:54;42.78;;;23.60;;
30888;SDS011;51092;50.874;7.024;2023-07-02T05:51:57;45.75;;;23.10;;
30888;SDS011;51092;50.874;7.024;2023-07-02T05:52:58;40.25;;;22.20;;
30888;SDS011;51092;50.874;7.024;2023-07-02T05:54:01;42.45;;;24.10;;
30888;SDS011;51092;50.874;7.024;2023-07-02T05:55:02;45.95;;;24.30;;
30888;SDS011;51092;50.874;7.024;2023-07-02T05:56:05;46.75;;;24.20;;
30888;SDS011;51092;50.874;7.024;2023-07-02T05:57:07;40.67;;;23.63;;
30888;SDS011;51092;50.874;7.024;2023-07-02T05:58:10;41.03;;;25.13;;
30888;SDS011;51092;50.874;7.024;2023-07-02T05:59:12;45.22;;;24.88;;
30888;SDS011;51092;50.874;7.024;2023-07-02T06:00:20;43.25;;;23.65;;
30888;SDS011;51092;50.874;7.024;2023-07-02T06:01:21;49.42;;;25.80;;
30888;SDS011;51092;50.874;7.024;2023-07-02T06:02:24;50.72;;;24.85;;
30888;SDS011;51092;50.874;7.024;2023-07-02T06:03:25;53.35;;;25.48;;
30888;SDS011;51092;50.874;7.024;2023-07-02T06:04:27;46.15;;;24.23;;
30888;SDS011;51092;50.874;7.024;2023-07-02T06:05:29;46.47;;;24.67;;
30888;SDS011;51092;50.874;7.024;2023-07-02T06:06:31;51.25;;;24.48;;
30888;SDS011;51092;50.874;7.024;2023-07-02T06:07:33;47.58;;;25.13;;